createdAt,value
2023-05-21T00:01:16.462Z,16.25
2023-05-21T00:03:44.118Z,14.38
2023-05-21T00:06:12.393Z,14.38
2023-05-21T00:08:39.809Z,15.07
2023-05-21T00:11:07.484Z,14.98
2023-05-21T00:13:34.939Z,15.05
2023-05-21T00:16:02.640Z,14.57
2023-05-21T00:18:29.960Z,14.52
2023-05-21T00:20:57.689Z,14.75
2023-05-21T00:23:24.996Z,14.07
2023-05-21T00:25:53.120Z,14.85
2023-05-21T00:28:20.463Z,15.05
2023-05-21T00:30:48.094Z,13.77
2023-05-21T00:33:15.433Z,14.95
2023-05-21T00:35:58.164Z,14.10
2023-05-21T00:38:25.544Z,15.75
2023-05-21T00:40:53.334Z,14.18
2023-05-21T00:43:20.704Z,13.85
2023-05-21T00:45:48.254Z,14.55
2023-05-21T00:48:15.643Z,14.50
2023-05-21T00:50:43.379Z,15.15
2023-05-21T00:53:10.964Z,15.02
2023-05-21T00:55:38.833Z,15.27
2023-05-21T00:58:06.623Z,14.65
2023-05-21T01:00:35.047Z,14.77
2023-05-21T01:03:02.510Z,14.30
2023-05-21T01:05:30.658Z,14.40
2023-05-21T01:07:58.476Z,15.20
2023-05-21T01:10:26.480Z,13.82
2023-05-21T01:12:54.872Z,15.60
2023-05-21T01:15:22.544Z,14.90
2023-05-21T01:17:51.157Z,14.20
2023-05-21T01:20:19.773Z,14.20
2023-05-21T01:22:56.619Z,16.27
2023-05-21T01:25:24.312Z,15.13
2023-05-21T01:27:51.821Z,14.73
2023-05-21T01:30:20.421Z,14.77
2023-05-21T01:32:47.776Z,14.73
2023-05-21T01:35:22.137Z,14.77
2023-05-21T01:37:55.407Z,13.82
2023-05-21T01:40:31.805Z,14.77
2023-05-21T01:42:59.542Z,15.65
2023-05-21T01:45:28.095Z,14.40
2023-05-21T01:47:55.632Z,15.35
2023-05-21T01:50:23.963Z,15.40
2023-05-21T01:52:52.335Z,15.90
2023-05-21T01:55:20.565Z,14.77
2023-05-21T01:57:47.903Z,16.60
2023-05-21T02:00:15.667Z,15.50
2023-05-21T02:02:43.065Z,14.55
2023-05-21T02:05:10.860Z,14.90
2023-05-21T02:07:38.270Z,15.60
2023-05-21T02:10:06.159Z,15.52
2023-05-21T02:12:33.666Z,15.50
2023-05-21T02:15:01.378Z,14.60
2023-05-21T02:17:28.791Z,16.30
2023-05-21T02:19:56.743Z,17.05
2023-05-21T02:22:24.079Z,17.27
2023-05-21T02:24:51.657Z,16.45
2023-05-21T02:27:18.978Z,15.30
2023-05-21T02:29:46.618Z,15.30
2023-05-21T02:32:14.992Z,16.23
2023-05-21T02:34:42.624Z,16.77
2023-05-21T02:37:09.904Z,15.68
2023-05-21T02:39:37.486Z,16.23
2023-05-21T02:42:04.893Z,16.08
2023-05-21T02:44:32.472Z,15.90
2023-05-21T02:46:59.798Z,15.35
2023-05-21T02:49:27.452Z,15.05
2023-05-21T02:51:54.744Z,14.88
2023-05-21T02:54:22.325Z,14.80
2023-05-21T02:56:49.675Z,15.35
2023-05-21T02:59:17.241Z,15.57
2023-05-21T03:01:44.641Z,16.27
2023-05-21T03:04:12.326Z,14.48
2023-05-21T03:06:40.141Z,15.13
2023-05-21T03:09:07.840Z,15.85
2023-05-21T03:11:35.251Z,15.02
2023-05-21T03:14:02.968Z,16.00
2023-05-21T03:16:30.324Z,16.13
2023-05-21T03:18:57.969Z,14.98
2023-05-21T03:21:25.346Z,14.30
2023-05-21T03:23:52.955Z,15.50
2023-05-21T03:26:20.341Z,14.75
2023-05-21T03:28:47.929Z,13.85
2023-05-21T03:31:15.302Z,15.00
2023-05-21T03:33:43.075Z,14.27
2023-05-21T03:36:10.643Z,15.02
2023-05-21T03:38:38.300Z,14.07
2023-05-21T03:41:06.343Z,13.05
2023-05-21T03:43:34.155Z,13.18
2023-05-21T03:46:01.604Z,11.75
2023-05-21T03:48:29.293Z,11.13
2023-05-21T03:50:56.684Z,11.95
2023-05-21T03:53:24.430Z,12.13
2023-05-21T03:55:51.803Z,11.43
2023-05-21T03:58:19.430Z,11.80
2023-05-21T04:00:46.829Z,11.57
2023-05-21T04:03:14.689Z,11.07
2023-05-21T04:05:42.515Z,11.07
2023-05-21T04:08:10.285Z,10.43
2023-05-21T04:10:37.580Z,11.95
2023-05-21T04:13:05.184Z,10.80
2023-05-21T04:15:32.575Z,10.50
2023-05-21T04:18:00.233Z,10.38
2023-05-21T04:20:27.631Z,10.80
2023-05-21T04:22:55.210Z,10.20
2023-05-21T04:25:22.621Z,10.15
2023-05-21T04:27:50.253Z,10.82
2023-05-21T04:30:17.598Z,10.05
2023-05-21T04:32:45.285Z,9.77
2023-05-21T04:35:12.611Z,10.15
2023-05-21T04:37:40.270Z,8.65
2023-05-21T04:40:08.777Z,8.95
2023-05-21T04:42:36.423Z,8.93
2023-05-21T04:45:03.873Z,9.13
2023-05-21T04:47:31.542Z,9.63
2023-05-21T04:49:58.849Z,9.25
2023-05-21T04:52:26.458Z,9.40
2023-05-21T04:54:53.825Z,8.85
2023-05-21T04:57:21.451Z,8.98
2023-05-21T04:59:48.785Z,8.48
2023-05-21T05:02:16.653Z,8.05
2023-05-21T05:04:44.013Z,8.57
2023-05-21T05:07:11.766Z,8.48
2023-05-21T05:09:39.060Z,8.10
2023-05-21T05:12:06.843Z,8.70
2023-05-21T05:14:34.192Z,8.82
2023-05-21T05:17:02.971Z,7.68
2023-05-21T05:19:30.736Z,7.85
2023-05-21T05:21:58.476Z,8.68
2023-05-21T05:24:25.862Z,8.38
2023-05-21T05:26:53.435Z,8.63
2023-05-21T05:29:20.770Z,8.23
2023-05-21T05:31:48.399Z,7.85
2023-05-21T05:34:15.791Z,8.43
2023-05-21T05:36:43.379Z,8.00
2023-05-21T05:39:10.737Z,8.32
2023-05-21T05:41:38.370Z,7.97
2023-05-21T05:44:05.751Z,8.02
2023-05-21T05:46:33.414Z,7.90
2023-05-21T05:49:00.711Z,8.15
2023-05-21T05:51:28.386Z,7.25
2023-05-21T05:53:55.706Z,8.13
2023-05-21T05:56:24.190Z,7.57
2023-05-21T05:58:51.690Z,8.10
2023-05-21T06:01:19.542Z,7.30
2023-05-21T06:03:47.147Z,7.60
2023-05-21T06:06:15.181Z,7.95
2023-05-21T06:08:46.958Z,6.80
2023-05-21T06:11:14.578Z,7.30
2023-05-21T06:13:43.472Z,7.40
2023-05-21T06:16:13.939Z,11.45
2023-05-21T06:18:41.644Z,7.32
2023-05-21T06:21:09.258Z,6.25
2023-05-21T06:23:36.634Z,6.53
2023-05-21T06:26:04.718Z,6.20
2023-05-21T06:28:32.022Z,6.75
2023-05-21T06:31:02.289Z,6.80
2023-05-21T06:33:29.764Z,6.10
2023-05-21T06:35:57.521Z,6.40
2023-05-21T06:38:24.845Z,6.40
2023-05-21T06:40:52.469Z,5.90
2023-05-21T06:43:19.934Z,6.45
2023-05-21T06:45:47.644Z,5.75
2023-05-21T06:48:15.096Z,6.38
2023-05-21T06:50:43.003Z,6.15
2023-05-21T06:53:10.621Z,6.03
2023-05-21T06:55:39.792Z,6.00
2023-05-21T06:58:07.390Z,5.90
2023-05-21T07:00:38.035Z,6.53
2023-05-21T07:03:05.628Z,5.38
2023-05-21T07:05:33.654Z,6.20
2023-05-21T07:08:06.121Z,6.00
2023-05-21T07:10:40.470Z,5.78
2023-05-21T07:13:07.909Z,6.32
2023-05-21T07:15:36.530Z,5.90
2023-05-21T07:21:19.451Z,5.90
2023-05-21T07:23:49.623Z,5.57
2023-05-21T07:26:17.285Z,5.40
2023-05-21T07:28:46.584Z,5.68
2023-05-21T07:31:14.380Z,4.97
2023-05-21T07:33:41.824Z,5.05
2023-05-21T07:36:09.471Z,5.25
2023-05-21T07:38:36.828Z,5.55
2023-05-21T07:41:04.649Z,5.93
2023-05-21T07:43:33.468Z,6.03
2023-05-21T07:46:01.163Z,4.97
2023-05-21T07:48:28.496Z,5.50
2023-05-21T07:50:57.466Z,7.15
2023-05-21T07:53:24.951Z,5.90
2023-05-21T07:55:52.582Z,5.97
2023-05-21T07:58:22.717Z,6.50
2023-05-21T08:00:50.575Z,5.73
2023-05-21T08:03:18.350Z,6.78
2023-05-21T08:05:46.780Z,5.78
2023-05-21T08:08:17.491Z,6.00
2023-05-21T08:10:45.621Z,6.13
2023-05-21T08:13:12.985Z,5.78
2023-05-21T08:15:40.606Z,6.22
2023-05-21T08:18:08.010Z,6.22
2023-05-21T08:20:35.797Z,6.32
2023-05-21T08:23:03.156Z,5.80
2023-05-21T08:25:32.354Z,5.53
2023-05-21T08:27:59.732Z,6.00
2023-05-21T08:30:27.366Z,5.32
2023-05-21T08:32:54.824Z,5.60
2023-05-21T08:35:22.540Z,5.35
2023-05-21T08:37:49.901Z,6.10
2023-05-21T08:40:18.060Z,5.38
2023-05-21T08:42:48.918Z,4.88
2023-05-21T08:47:45.940Z,4.93
2023-05-21T08:50:14.339Z,4.57
2023-05-21T08:52:42.933Z,4.28
2023-05-21T08:55:10.778Z,4.63
2023-05-21T08:57:40.888Z,3.95
2023-05-21T09:00:09.053Z,4.53
2023-05-21T09:02:37.976Z,4.25
2023-05-21T09:05:06.073Z,4.25
2023-05-21T09:07:39.295Z,4.05
2023-05-21T09:10:07.829Z,4.60
2023-05-21T09:12:35.387Z,4.10
2023-05-21T09:15:03.402Z,4.30
2023-05-21T09:17:30.916Z,4.90
2023-05-21T09:20:14.264Z,4.20
2023-05-21T09:22:51.264Z,4.85
2023-05-21T09:25:21.588Z,4.38
2023-05-21T09:27:50.034Z,4.63
2023-05-21T09:30:18.264Z,3.95
2023-05-21T09:32:52.744Z,4.00
2023-05-21T09:35:23.935Z,3.80
2023-05-21T09:37:52.669Z,4.40
2023-05-21T09:40:23.979Z,4.55
2023-05-21T09:45:38.454Z,3.90
2023-05-21T09:51:50.060Z,3.90
2023-05-21T09:54:20.824Z,3.97
2023-05-21T09:56:53.933Z,4.20
2023-05-21T10:02:23.644Z,4.57
2023-05-21T10:04:56.127Z,3.72
2023-05-21T10:10:47.399Z,3.67
2023-05-21T10:13:18.730Z,3.85
2023-05-21T10:16:06.999Z,3.88
2023-05-21T10:18:37.504Z,3.78
2023-05-21T10:21:05.114Z,3.55
2023-05-21T10:23:41.153Z,3.85
2023-05-21T10:26:16.568Z,3.50
2023-05-21T10:31:52.592Z,3.60
2023-05-21T10:34:23.400Z,3.80
2023-05-21T10:36:51.114Z,3.60
2023-05-21T10:39:19.341Z,3.53
2023-05-21T10:41:54.725Z,3.05
2023-05-21T10:44:34.402Z,3.00
2023-05-21T10:47:04.493Z,3.35
2023-05-21T10:49:36.367Z,3.42
2023-05-21T10:52:18.909Z,3.40
2023-05-21T10:55:13.679Z,3.00
2023-05-21T10:57:59.584Z,3.40
2023-05-21T11:00:31.559Z,3.65
2023-05-21T11:03:14.799Z,3.47
2023-05-21T11:05:52.754Z,3.20
2023-05-21T11:08:23.979Z,3.13
2023-05-21T11:13:18.800Z,3.00
2023-05-21T11:15:58.328Z,2.88
2023-05-21T11:18:50.153Z,3.08
2023-05-21T11:21:18.776Z,2.92
2023-05-21T11:23:56.358Z,3.15
2023-05-21T11:26:24.929Z,2.30
2023-05-21T11:29:04.228Z,2.85
2023-05-21T11:31:32.995Z,2.88
2023-05-21T11:34:12.287Z,2.70
2023-05-21T11:36:46.469Z,2.92
2023-05-21T11:39:14.685Z,2.90
2023-05-21T11:41:51.983Z,3.00
2023-05-21T11:44:21.519Z,2.80
2023-05-21T11:46:49.368Z,3.22
2023-05-21T11:49:16.986Z,2.90
2023-05-21T11:51:44.818Z,3.00
2023-05-21T11:54:12.147Z,2.92
2023-05-21T11:56:40.238Z,2.50
2023-05-21T11:59:13.605Z,3.03
2023-05-21T12:01:44.109Z,2.72
2023-05-21T12:04:11.619Z,2.60
2023-05-21T12:06:42.467Z,2.83
2023-05-21T12:09:10.297Z,2.35
2023-05-21T12:11:39.296Z,2.60
2023-05-21T12:14:13.588Z,2.78
2023-05-21T12:16:41.348Z,2.40
2023-05-21T12:19:09.396Z,3.00
2023-05-21T12:21:37.819Z,2.42
2023-05-21T12:24:05.219Z,2.88
2023-05-21T12:26:32.950Z,2.80
2023-05-21T12:29:00.826Z,2.88
2023-05-21T12:31:30.018Z,2.75
2023-05-21T12:33:57.680Z,2.70
2023-05-21T12:36:30.303Z,2.50
2023-05-21T12:38:58.029Z,2.75
2023-05-21T12:41:26.079Z,2.70
2023-05-21T12:43:53.526Z,2.65
2023-05-21T12:49:05.805Z,2.47
2023-05-21T12:51:39.997Z,2.88
2023-05-21T12:54:13.248Z,2.50
2023-05-21T12:56:44.390Z,2.75
2023-05-21T12:59:16.217Z,2.40
2023-05-21T13:01:47.324Z,2.80
2023-05-21T13:04:14.858Z,2.60
2023-05-21T13:06:44.903Z,2.80
2023-05-21T13:09:12.154Z,2.45
2023-05-21T13:11:39.813Z,2.75
2023-05-21T13:14:07.143Z,2.65
2023-05-21T13:16:38.044Z,2.65
2023-05-21T13:19:08.280Z,2.63
2023-05-21T13:21:36.058Z,3.00
2023-05-21T13:24:03.658Z,2.92
2023-05-21T13:26:34.418Z,3.80
2023-05-21T13:29:02.055Z,2.50
2023-05-21T13:31:29.706Z,2.60
2023-05-21T13:33:58.295Z,2.42
2023-05-21T13:36:25.983Z,2.53
2023-05-21T13:38:53.448Z,2.72
2023-05-21T13:41:46.229Z,2.35
2023-05-21T13:44:16.279Z,2.78
2023-05-21T13:46:44.619Z,3.60
2023-05-21T13:49:12.012Z,3.22
2023-05-21T13:51:45.897Z,2.50
2023-05-21T13:54:13.298Z,2.70
2023-05-21T13:56:45.260Z,2.40
2023-05-21T13:59:12.639Z,2.75
2023-05-21T14:01:43.377Z,2.80
2023-05-21T14:04:11.330Z,2.67
2023-05-21T14:06:51.674Z,2.95
2023-05-21T14:09:19.521Z,2.55
2023-05-21T14:11:51.128Z,2.83
2023-05-21T14:14:40.218Z,2.53
2023-05-21T14:17:09.886Z,2.50
2023-05-21T14:19:37.288Z,2.90
2023-05-21T14:22:10.469Z,2.60
2023-05-21T14:24:40.266Z,2.67
2023-05-21T14:30:20.449Z,2.38
2023-05-21T14:32:50.934Z,2.55
2023-05-21T14:35:19.929Z,2.80
2023-05-21T14:37:49.682Z,2.90
2023-05-21T14:43:09.794Z,2.58
2023-05-21T14:45:59.401Z,3.03
2023-05-21T14:48:27.399Z,2.85
2023-05-21T14:50:54.745Z,2.47
2023-05-21T14:53:27.426Z,2.70
2023-05-21T14:56:02.307Z,2.45
2023-05-21T14:58:32.158Z,2.90
2023-05-21T15:01:03.085Z,2.63
2023-05-21T15:06:31.031Z,2.78
2023-05-21T15:09:01.050Z,3.13
2023-05-21T15:11:29.739Z,2.25
2023-05-21T15:17:07.690Z,2.70
2023-05-21T15:19:38.258Z,2.40
2023-05-21T15:22:09.531Z,2.53
2023-05-21T15:24:44.551Z,3.30
2023-05-21T15:27:15.327Z,2.92
2023-05-21T15:30:13.988Z,2.63
2023-05-21T15:32:49.713Z,2.22
2023-05-21T15:35:19.286Z,2.80
2023-05-21T15:37:46.756Z,2.97
2023-05-21T15:40:16.406Z,2.33
2023-05-21T15:42:43.760Z,2.15
2023-05-21T15:45:19.311Z,2.42
2023-05-21T15:47:53.129Z,2.90
2023-05-21T15:50:37.341Z,2.25
2023-05-21T15:53:41.709Z,2.47
2023-05-21T15:56:34.039Z,3.30
2023-05-21T15:59:09.521Z,2.42
2023-05-21T16:01:36.927Z,2.10
2023-05-21T16:04:05.099Z,2.13
2023-05-21T16:06:34.569Z,2.50
2023-05-21T16:09:02.494Z,2.17
2023-05-21T16:11:30.073Z,2.22
2023-05-21T16:13:58.328Z,2.28
2023-05-21T16:16:33.308Z,2.35
2023-05-21T16:19:03.194Z,2.35
2023-05-21T16:21:31.027Z,2.42
2023-05-21T16:24:00.739Z,2.50
2023-05-21T16:26:32.257Z,2.35
2023-05-21T16:28:59.876Z,2.50
2023-05-21T16:31:28.728Z,2.50
2023-05-21T16:33:56.471Z,2.40
2023-05-21T16:36:23.946Z,2.30
2023-05-21T16:38:52.853Z,3.47
2023-05-21T16:41:20.511Z,3.13
2023-05-21T16:43:51.077Z,3.20
2023-05-21T16:46:18.621Z,2.35
2023-05-21T16:48:46.462Z,2.42
2023-05-21T16:51:14.189Z,2.00
2023-05-21T16:53:41.879Z,2.70
2023-05-21T16:56:09.951Z,2.30
2023-05-21T16:58:38.945Z,2.55
2023-05-21T17:01:06.531Z,2.42
2023-05-21T17:03:34.495Z,2.30
2023-05-21T17:06:02.115Z,2.22
2023-05-21T17:08:29.861Z,2.33
2023-05-21T17:10:57.665Z,2.13
2023-05-21T17:13:27.522Z,2.28
2023-05-21T17:15:58.145Z,2.50
2023-05-21T17:18:30.573Z,2.20
2023-05-21T17:20:59.553Z,2.50
2023-05-21T17:23:27.264Z,2.35
2023-05-21T17:25:54.763Z,2.40
2023-05-21T17:28:22.403Z,2.63
2023-05-21T17:30:49.978Z,2.30
2023-05-21T17:33:17.833Z,2.60
2023-05-21T17:35:45.175Z,2.17
2023-05-21T17:38:12.908Z,2.17
2023-05-21T17:40:40.325Z,2.40
2023-05-21T17:43:08.153Z,2.53
2023-05-21T17:45:35.822Z,2.40
2023-05-21T17:48:06.522Z,2.22
2023-05-21T17:50:35.816Z,2.35
2023-05-21T17:53:23.500Z,2.85
2023-05-21T17:55:50.871Z,2.40
2023-05-21T17:58:21.209Z,2.70
2023-05-21T18:00:50.039Z,2.50
2023-05-21T18:03:17.936Z,2.40
2023-05-21T18:05:45.446Z,2.65
2023-05-21T18:08:13.676Z,2.38
2023-05-21T18:10:41.214Z,2.25
2023-05-21T18:13:08.928Z,2.22
2023-05-21T18:15:36.556Z,2.20
2023-05-21T18:18:24.714Z,2.45
2023-05-21T18:20:54.925Z,2.35
2023-05-21T18:23:24.316Z,2.63
2023-05-21T18:25:51.745Z,2.65
2023-05-21T18:38:33.294Z,2.50
2023-05-21T18:41:01.287Z,2.40
2023-05-21T18:43:28.707Z,2.63
2023-05-21T18:45:56.429Z,2.70
2023-05-21T18:48:23.801Z,2.67
2023-05-21T18:50:51.503Z,3.03
2023-05-21T18:53:18.899Z,2.88
2023-05-21T18:55:46.809Z,2.67
2023-05-21T18:58:14.284Z,2.60
2023-05-21T19:00:43.242Z,2.85
2023-05-21T19:03:10.825Z,2.60
2023-05-21T19:05:38.698Z,2.83
2023-05-21T19:08:06.284Z,2.50
2023-05-21T19:10:34.077Z,2.88
2023-05-21T19:13:12.414Z,3.20
2023-05-21T19:15:40.364Z,2.50
2023-05-21T19:18:26.838Z,3.05
2023-05-21T19:21:07.276Z,2.67
2023-05-21T19:23:52.586Z,3.40
2023-05-21T19:26:22.857Z,2.78
2023-05-21T19:29:22.252Z,3.10
2023-05-21T19:31:48.010Z,2.92
2023-05-21T19:34:15.630Z,2.72
2023-05-21T19:36:53.393Z,2.92
2023-05-21T19:39:21.677Z,2.72
2023-05-21T19:41:49.413Z,2.80
2023-05-21T19:44:16.833Z,3.83
2023-05-21T19:46:44.581Z,3.35
2023-05-21T19:49:11.984Z,3.72
2023-05-21T19:51:40.636Z,2.95
2023-05-21T19:54:08.423Z,3.05
2023-05-21T19:56:36.184Z,3.28
2023-05-21T19:59:03.570Z,2.83
2023-05-21T20:01:31.796Z,2.65
2023-05-21T20:03:59.257Z,3.20
2023-05-21T20:06:27.194Z,3.40
2023-05-21T20:08:54.973Z,3.13
2023-05-21T20:11:22.756Z,3.00
2023-05-21T20:13:52.338Z,3.17
2023-05-21T20:16:28.849Z,2.97
2023-05-21T20:18:56.331Z,3.05
2023-05-21T20:21:24.590Z,3.13
2023-05-21T20:23:53.034Z,3.60
2023-05-21T20:26:33.773Z,4.03
2023-05-21T20:29:01.107Z,3.22
2023-05-21T20:31:28.975Z,3.28
2023-05-21T20:33:56.438Z,3.30
2023-05-21T20:36:24.087Z,3.55
2023-05-21T20:38:53.042Z,3.28
2023-05-21T20:41:23.603Z,3.38
2023-05-21T20:43:51.124Z,3.10
2023-05-21T20:46:19.182Z,3.55
2023-05-21T20:48:49.879Z,3.67
2023-05-21T20:51:17.773Z,3.30
2023-05-21T20:53:48.477Z,3.20
2023-05-21T20:56:23.897Z,2.97
2023-05-21T20:58:59.518Z,3.47
2023-05-21T21:01:29.925Z,3.67
2023-05-21T21:04:02.838Z,3.28
2023-05-21T21:06:30.673Z,3.30
2023-05-21T21:09:01.072Z,3.55
2023-05-21T21:11:35.140Z,3.30
2023-05-21T21:14:07.064Z,3.47
2023-05-21T21:16:34.923Z,3.47
2023-05-21T21:19:02.593Z,3.80
2023-05-21T21:21:36.617Z,3.17
2023-05-21T21:24:30.903Z,3.08
2023-05-21T21:26:58.777Z,3.63
2023-05-21T21:29:26.625Z,4.00
2023-05-21T21:31:54.409Z,3.70
2023-05-21T21:34:24.961Z,3.67
2023-05-21T21:36:53.699Z,3.40
2023-05-21T21:39:23.662Z,3.50
2023-05-21T21:41:51.337Z,4.07
2023-05-21T21:44:18.681Z,3.88
2023-05-21T21:46:48.297Z,3.53
2023-05-21T21:49:16.150Z,3.58
2023-05-21T21:52:04.017Z,3.42
2023-05-21T21:54:31.460Z,3.70
2023-05-21T21:57:00.191Z,3.63
2023-05-21T21:59:27.533Z,3.75
2023-05-21T22:01:55.392Z,3.60
2023-05-21T22:04:22.792Z,3.72
2023-05-21T22:06:50.525Z,3.65
2023-05-21T22:09:18.077Z,4.00
2023-05-21T22:11:49.020Z,3.70
2023-05-21T22:14:16.528Z,3.22
2023-05-21T22:16:44.185Z,3.90
2023-05-21T22:19:11.591Z,3.42
2023-05-21T22:21:39.470Z,3.20
2023-05-21T22:24:09.491Z,3.88
2023-05-21T22:26:40.467Z,3.65
2023-05-21T22:29:09.248Z,3.72
2023-05-21T22:31:38.084Z,3.55
2023-05-21T22:34:06.178Z,3.65
2023-05-21T22:36:33.837Z,3.78
2023-05-21T22:39:07.981Z,3.33
2023-05-21T22:41:35.641Z,3.83
2023-05-21T22:44:03.103Z,3.50
2023-05-21T22:46:30.765Z,3.60
2023-05-21T22:48:58.151Z,3.72
2023-05-21T22:51:25.815Z,3.67
2023-05-21T22:53:53.290Z,4.20
2023-05-21T22:56:22.343Z,3.55
2023-05-21T22:58:51.274Z,3.75
2023-05-21T23:01:19.135Z,3.97
2023-05-21T23:03:46.470Z,4.03
2023-05-21T23:06:14.166Z,3.90
2023-05-21T23:08:44.509Z,3.72
2023-05-21T23:11:12.483Z,3.72
2023-05-21T23:13:44.121Z,3.60
2023-05-21T23:16:12.195Z,3.40
2023-05-21T23:18:42.626Z,3.50
2023-05-21T23:21:14.034Z,3.75
2023-05-21T23:23:42.165Z,3.72
2023-05-21T23:26:13.066Z,3.60
2023-05-21T23:28:42.165Z,3.65
2023-05-21T23:31:10.704Z,4.15
2023-05-21T23:33:38.384Z,3.50
2023-05-21T23:36:28.522Z,3.97
2023-05-21T23:39:00.153Z,3.60
2023-05-21T23:41:27.863Z,3.47
2023-05-21T23:43:55.261Z,4.30
2023-05-21T23:46:23.295Z,3.80
2023-05-21T23:48:52.122Z,3.90
2023-05-21T23:51:19.759Z,3.90
2023-05-21T23:53:47.120Z,3.97
2023-05-21T23:56:14.805Z,3.50
2023-05-21T23:58:42.261Z,4.10
